sensor_id;sensor_type;location;lat;lon;timestamp;P1;durP1;ratioP1;P2;durP2;ratioP2
32106;SDS011;18622;51.998;10.440;2022-12-07T03:16:37;21.50;;;10.65;;
32106;SDS011;18622;51.998;10.440;2022-12-07T03:19:10;19.15;;;10.78;;
32106;SDS011;18622;51.998;10.440;2022-12-07T03:21:41;22.73;;;11.80;;
32106;SDS011;18622;51.998;10.440;2022-12-07T03:24:21;23.77;;;11.30;;
32106;SDS011;18622;51.998;10.440;2022-12-07T03:29:38;19.85;;;11.57;;
32106;SDS011;18622;51.998;10.440;2022-12-07T03:34:55;29.40;;;14.27;;
32106;SDS011;18622;51.998;10.440;2022-12-07T03:37:26;32.37;;;16.60;;
32106;SDS011;18622;51.998;10.440;2022-12-07T03:45:10;32.60;;;15.07;;
32106;SDS011;18622;51.998;10.440;2022-12-07T03:50:21;27.40;;;13.13;;
32106;SDS011;18622;51.998;10.440;2022-12-07T03:52:53;31.02;;;14.80;;
32106;SDS011;18622;51.998;10.440;2022-12-07T03:55:27;30.92;;;14.03;;
32106;SDS011;18622;51.998;10.440;2022-12-07T03:58:03;30.92;;;14.28;;
32106;SDS011;18622;51.998;10.440;2022-12-07T04:34:26;25.53;;;13.97;;
32106;SDS011;18622;51.998;10.440;2022-12-07T04:36:53;30.70;;;14.93;;
32106;SDS011;18622;51.998;10.440;2022-12-07T04:39:23;32.77;;;15.33;;
32106;SDS011;18622;51.998;10.440;2022-12-07T04:41:52;30.65;;;14.95;;
32106;SDS011;18622;51.998;10.440;2022-12-07T04:44:20;33.20;;;15.30;;
32106;SDS011;18622;51.998;10.440;2022-12-07T04:46:49;39.58;;;20.10;;
32106;SDS011;18622;51.998;10.440;2022-12-07T04:49:17;27.65;;;14.03;;
32106;SDS011;18622;51.998;10.440;2022-12-07T04:51:46;33.38;;;12.75;;
32106;SDS011;18622;51.998;10.440;2022-12-07T04:54:14;25.03;;;12.40;;
32106;SDS011;18622;51.998;10.440;2022-12-07T04:56:42;28.83;;;12.85;;
32106;SDS011;18622;51.998;10.440;2022-12-07T04:59:11;24.17;;;9.83;;
32106;SDS011;18622;51.998;10.440;2022-12-07T05:01:39;23.90;;;13.22;;
32106;SDS011;18622;51.998;10.440;2022-12-07T05:04:08;26.97;;;12.60;;
32106;SDS011;18622;51.998;10.440;2022-12-07T05:06:35;28.42;;;11.88;;
32106;SDS011;18622;51.998;10.440;2022-12-07T05:09:04;24.43;;;10.87;;
32106;SDS011;18622;51.998;10.440;2022-12-07T05:11:31;20.15;;;10.55;;
32106;SDS011;18622;51.998;10.440;2022-12-07T05:16:39;25.50;;;12.43;;
32106;SDS011;18622;51.998;10.440;2022-12-07T05:19:08;28.55;;;12.25;;
32106;SDS011;18622;51.998;10.440;2022-12-07T05:21:36;28.62;;;13.83;;
32106;SDS011;18622;51.998;10.440;2022-12-07T05:24:04;32.55;;;12.35;;
32106;SDS011;18622;51.998;10.440;2022-12-07T05:26:33;24.80;;;12.28;;
32106;SDS011;18622;51.998;10.440;2022-12-07T05:29:01;32.67;;;14.17;;
32106;SDS011;18622;51.998;10.440;2022-12-07T05:31:29;30.63;;;13.50;;
32106;SDS011;18622;51.998;10.440;2022-12-07T05:33:57;29.83;;;13.50;;
32106;SDS011;18622;51.998;10.440;2022-12-07T05:36:25;28.70;;;12.80;;
32106;SDS011;18622;51.998;10.440;2022-12-07T05:38:54;23.00;;;12.77;;
32106;SDS011;18622;51.998;10.440;2022-12-07T05:41:22;38.27;;;13.30;;
32106;SDS011;18622;51.998;10.440;2022-12-07T05:44:07;27.87;;;12.73;;
32106;SDS011;18622;51.998;10.440;2022-12-07T05:46:35;31.27;;;13.47;;
32106;SDS011;18622;51.998;10.440;2022-12-07T05:49:03;27.10;;;12.93;;
32106;SDS011;18622;51.998;10.440;2022-12-07T05:51:31;27.57;;;12.23;;
32106;SDS011;18622;51.998;10.440;2022-12-07T05:53:59;23.93;;;12.47;;
32106;SDS011;18622;51.998;10.440;2022-12-07T05:56:26;34.73;;;12.93;;
32106;SDS011;18622;51.998;10.440;2022-12-07T05:58:54;21.97;;;11.23;;
32106;SDS011;18622;51.998;10.440;2022-12-07T06:01:40;59.70;;;16.07;;
32106;SDS011;18622;51.998;10.440;2022-12-07T06:04:08;27.37;;;12.17;;
32106;SDS011;18622;51.998;10.440;2022-12-07T06:06:36;29.33;;;10.33;;
32106;SDS011;18622;51.998;10.440;2022-12-07T06:09:03;26.67;;;11.27;;
32106;SDS011;18622;51.998;10.440;2022-12-07T06:11:31;23.07;;;11.60;;
32106;SDS011;18622;51.998;10.440;2022-12-07T06:14:17;25.93;;;10.53;;
32106;SDS011;18622;51.998;10.440;2022-12-07T06:16:45;29.70;;;11.10;;
32106;SDS011;18622;51.998;10.440;2022-12-07T06:19:12;27.53;;;10.93;;
32106;SDS011;18622;51.998;10.440;2022-12-07T06:21:40;24.67;;;10.73;;
32106;SDS011;18622;51.998;10.440;2022-12-07T06:24:11;23.10;;;10.30;;
32106;SDS011;18622;51.998;10.440;2022-12-07T06:26:40;24.90;;;11.28;;
32106;SDS011;18622;51.998;10.440;2022-12-07T06:29:09;23.52;;;10.82;;
32106;SDS011;18622;51.998;10.440;2022-12-07T10:02:55;7.10;;;2.80;;
32106;SDS011;18622;51.998;10.440;2022-12-07T10:05:26;9.23;;;2.20;;
32106;SDS011;18622;51.998;10.440;2022-12-07T10:07:55;13.30;;;2.95;;
32106;SDS011;18622;51.998;10.440;2022-12-07T10:10:26;6.97;;;2.50;;
32106;SDS011;18622;51.998;10.440;2022-12-07T10:13:03;8.13;;;2.83;;
32106;SDS011;18622;51.998;10.440;2022-12-07T10:18:01;11.65;;;2.62;;
32106;SDS011;18622;51.998;10.440;2022-12-07T10:20:28;8.23;;;2.40;;
32106;SDS011;18622;51.998;10.440;2022-12-07T10:25:32;6.27;;;1.97;;
32106;SDS011;18622;51.998;10.440;2022-12-07T10:28:19;12.45;;;2.27;;
32106;SDS011;18622;51.998;10.440;2022-12-07T10:30:51;3.93;;;1.87;;
32106;SDS011;18622;51.998;10.440;2022-12-07T10:38:59;6.47;;;1.63;;
32106;SDS011;18622;51.998;10.440;2022-12-07T10:41:56;8.07;;;1.70;;
32106;SDS011;18622;51.998;10.440;2022-12-07T10:44:29;4.55;;;2.02;;
32106;SDS011;18622;51.998;10.440;2022-12-07T10:52:13;4.13;;;1.70;;
32106;SDS011;18622;51.998;10.440;2022-12-07T10:57:59;7.65;;;2.00;;
32106;SDS011;18622;51.998;10.440;2022-12-07T11:03:17;6.72;;;2.00;;
32106;SDS011;18622;51.998;10.440;2022-12-07T11:14:18;7.07;;;2.33;;
32106;SDS011;18622;51.998;10.440;2022-12-07T11:16:52;9.67;;;3.70;;
32106;SDS011;18622;51.998;10.440;2022-12-07T11:22:14;6.58;;;1.77;;
32106;SDS011;18622;51.998;10.440;2022-12-07T11:30:26;6.37;;;2.00;;
32106;SDS011;18622;51.998;10.440;2022-12-07T11:33:17;6.20;;;1.42;;
32106;SDS011;18622;51.998;10.440;2022-12-07T11:36:31;4.97;;;1.37;;
32106;SDS011;18622;51.998;10.440;2022-12-07T11:38:28;3.10;;;1.40;;
32106;SDS011;18622;51.998;10.440;2022-12-07T11:41:09;3.97;;;1.33;;
32106;SDS011;18622;51.998;10.440;2022-12-07T11:43:50;4.55;;;1.27;;
32106;SDS011;18622;51.998;10.440;2022-12-07T11:46:17;6.67;;;2.10;;
32106;SDS011;18622;51.998;10.440;2022-12-07T11:48:54;5.63;;;1.40;;
32106;SDS011;18622;51.998;10.440;2022-12-07T11:51:22;6.03;;;1.50;;
32106;SDS011;18622;51.998;10.440;2022-12-07T11:53:55;3.10;;;1.27;;
32106;SDS011;18622;51.998;10.440;2022-12-07T11:56:27;5.40;;;1.50;;
32106;SDS011;18622;51.998;10.440;2022-12-07T11:59:01;2.83;;;1.35;;
32106;SDS011;18622;51.998;10.440;2022-12-07T16:02:51;11.53;;;2.75;;
32106;SDS011;18622;51.998;10.440;2022-12-07T16:05:18;14.13;;;3.47;;
32106;SDS011;18622;51.998;10.440;2022-12-07T16:07:46;7.00;;;2.10;;
32106;SDS011;18622;51.998;10.440;2022-12-07T16:10:14;13.53;;;2.93;;
32106;SDS011;18622;51.998;10.440;2022-12-07T16:12:42;7.43;;;2.00;;
32106;SDS011;18622;51.998;10.440;2022-12-07T16:17:38;13.22;;;2.98;;
32106;SDS011;18622;51.998;10.440;2022-12-07T16:20:06;12.20;;;4.80;;
32106;SDS011;18622;51.998;10.440;2022-12-07T16:22:36;8.25;;;2.87;;
32106;SDS011;18622;51.998;10.440;2022-12-07T16:25:04;15.47;;;2.67;;
32106;SDS011;18622;51.998;10.440;2022-12-07T16:27:32;12.33;;;3.63;;
32106;SDS011;18622;51.998;10.440;2022-12-07T16:30:00;8.53;;;2.17;;
32106;SDS011;18622;51.998;10.440;2022-12-07T16:32:28;10.60;;;2.80;;
32106;SDS011;18622;51.998;10.440;2022-12-07T16:34:56;13.50;;;3.00;;
32106;SDS011;18622;51.998;10.440;2022-12-07T16:37:23;8.30;;;2.97;;
32106;SDS011;18622;51.998;10.440;2022-12-07T16:39:51;12.00;;;3.30;;
32106;SDS011;18622;51.998;10.440;2022-12-07T16:42:19;19.00;;;2.90;;
32106;SDS011;18622;51.998;10.440;2022-12-07T16:44:47;14.27;;;3.53;;
32106;SDS011;18622;51.998;10.440;2022-12-07T16:47:15;14.93;;;4.00;;
32106;SDS011;18622;51.998;10.440;2022-12-07T16:49:42;7.50;;;2.50;;
32106;SDS011;18622;51.998;10.440;2022-12-07T16:52:11;18.13;;;3.27;;
32106;SDS011;18622;51.998;10.440;2022-12-07T16:54:38;20.90;;;7.00;;
32106;SDS011;18622;51.998;10.440;2022-12-07T16:57:06;12.77;;;3.60;;
32106;SDS011;18622;51.998;10.440;2022-12-07T16:59:34;13.53;;;3.70;;
32106;SDS011;18622;51.998;10.440;2022-12-07T17:02:02;13.33;;;4.93;;
32106;SDS011;18622;51.998;10.440;2022-12-07T17:04:32;11.38;;;3.65;;
32106;SDS011;18622;51.998;10.440;2022-12-07T17:07:00;13.93;;;3.42;;
32106;SDS011;18622;51.998;10.440;2022-12-07T17:09:28;8.80;;;2.97;;
32106;SDS011;18622;51.998;10.440;2022-12-07T17:11:56;10.60;;;2.90;;
32106;SDS011;18622;51.998;10.440;2022-12-07T17:14:23;12.27;;;2.87;;
32106;SDS011;18622;51.998;10.440;2022-12-07T17:17:09;6.33;;;2.30;;
32106;SDS011;18622;51.998;10.440;2022-12-07T17:19:37;8.40;;;3.00;;
32106;SDS011;18622;51.998;10.440;2022-12-07T17:22:05;15.67;;;3.13;;
32106;SDS011;18622;51.998;10.440;2022-12-07T17:24:33;10.93;;;2.60;;
32106;SDS011;18622;51.998;10.440;2022-12-07T17:27:00;11.53;;;3.27;;
32106;SDS011;18622;51.998;10.440;2022-12-07T17:29:28;9.60;;;3.70;;
32106;SDS011;18622;51.998;10.440;2022-12-07T17:31:56;14.77;;;3.07;;
32106;SDS011;18622;51.998;10.440;2022-12-07T17:34:24;13.87;;;3.30;;
32106;SDS011;18622;51.998;10.440;2022-12-07T17:36:52;13.90;;;4.17;;
32106;SDS011;18622;51.998;10.440;2022-12-07T17:39:20;9.70;;;3.02;;
32106;SDS011;18622;51.998;10.440;2022-12-07T17:41:48;10.63;;;3.40;;
32106;SDS011;18622;51.998;10.440;2022-12-07T17:44:34;15.77;;;2.77;;
32106;SDS011;18622;51.998;10.440;2022-12-07T17:47:01;14.17;;;3.57;;
32106;SDS011;18622;51.998;10.440;2022-12-07T17:49:31;13.50;;;4.47;;
32106;SDS011;18622;51.998;10.440;2022-12-07T17:51:59;10.17;;;3.00;;
32106;SDS011;18622;51.998;10.440;2022-12-07T17:54:44;17.90;;;3.90;;
32106;SDS011;18622;51.998;10.440;2022-12-07T17:57:12;8.07;;;3.50;;
32106;SDS011;18622;51.998;10.440;2022-12-07T17:59:40;9.33;;;3.10;;
32106;SDS011;18622;51.998;10.440;2022-12-07T18:02:08;8.80;;;3.53;;
32106;SDS011;18622;51.998;10.440;2022-12-07T18:04:36;13.35;;;4.05;;
32106;SDS011;18622;51.998;10.440;2022-12-07T18:07:06;12.68;;;3.30;;
32106;SDS011;18622;51.998;10.440;2022-12-07T18:09:34;15.73;;;3.43;;
32106;SDS011;18622;51.998;10.440;2022-12-07T18:12:02;10.13;;;3.43;;
32106;SDS011;18622;51.998;10.440;2022-12-07T18:14:30;17.13;;;3.87;;
32106;SDS011;18622;51.998;10.440;2022-12-07T18:16:58;13.13;;;4.13;;
32106;SDS011;18622;51.998;10.440;2022-12-07T18:19:26;11.40;;;4.80;;
32106;SDS011;18622;51.998;10.440;2022-12-07T18:21:53;12.63;;;4.40;;
32106;SDS011;18622;51.998;10.440;2022-12-07T18:24:21;16.97;;;3.53;;
32106;SDS011;18622;51.998;10.440;2022-12-07T18:26:49;12.20;;;3.50;;
32106;SDS011;18622;51.998;10.440;2022-12-07T18:29:18;13.68;;;3.75;;
32106;SDS011;18622;51.998;10.440;2022-12-07T18:31:46;17.30;;;4.10;;
32106;SDS011;18622;51.998;10.440;2022-12-07T18:34:15;7.27;;;3.13;;
32106;SDS011;18622;51.998;10.440;2022-12-07T18:39:12;7.05;;;3.20;;
32106;SDS011;18622;51.998;10.440;2022-12-07T18:41:41;11.10;;;2.87;;
32106;SDS011;18622;51.998;10.440;2022-12-07T18:44:09;10.63;;;4.07;;
32106;SDS011;18622;51.998;10.440;2022-12-07T18:46:39;15.32;;;5.90;;
32106;SDS011;18622;51.998;10.440;2022-12-07T18:49:08;17.32;;;5.87;;
32106;SDS011;18622;51.998;10.440;2022-12-07T18:51:39;11.33;;;3.60;;
32106;SDS011;18622;51.998;10.440;2022-12-07T18:54:07;13.95;;;4.42;;
32106;SDS011;18622;51.998;10.440;2022-12-07T18:56:35;13.63;;;3.63;;
32106;SDS011;18622;51.998;10.440;2022-12-07T18:59:04;16.83;;;3.50;;
32106;SDS011;18622;51.998;10.440;2022-12-07T19:01:51;17.57;;;3.43;;
32106;SDS011;18622;51.998;10.440;2022-12-07T19:04:20;7.83;;;2.45;;
32106;SDS011;18622;51.998;10.440;2022-12-07T19:06:48;11.97;;;3.37;;
32106;SDS011;18622;51.998;10.440;2022-12-07T19:09:16;7.65;;;3.45;;
32106;SDS011;18622;51.998;10.440;2022-12-07T19:11:45;15.40;;;3.87;;
32106;SDS011;18622;51.998;10.440;2022-12-07T19:14:17;7.80;;;3.17;;
32106;SDS011;18622;51.998;10.440;2022-12-07T19:16:47;12.63;;;4.80;;
32106;SDS011;18622;51.998;10.440;2022-12-07T19:19:17;11.78;;;3.62;;
32106;SDS011;18622;51.998;10.440;2022-12-07T19:21:46;10.00;;;3.35;;
32106;SDS011;18622;51.998;10.440;2022-12-07T19:24:14;13.38;;;3.27;;
32106;SDS011;18622;51.998;10.440;2022-12-07T19:26:42;9.93;;;3.07;;
32106;SDS011;18622;51.998;10.440;2022-12-07T19:29:10;9.07;;;4.20;;
32106;SDS011;18622;51.998;10.440;2022-12-07T19:31:38;11.87;;;3.30;;
32106;SDS011;18622;51.998;10.440;2022-12-07T19:34:07;10.90;;;3.10;;
32106;SDS011;18622;51.998;10.440;2022-12-07T19:36:36;12.63;;;3.90;;
32106;SDS011;18622;51.998;10.440;2022-12-07T19:39:04;11.83;;;3.85;;
32106;SDS011;18622;51.998;10.440;2022-12-07T19:41:33;12.10;;;3.60;;
32106;SDS011;18622;51.998;10.440;2022-12-07T19:44:02;10.80;;;3.20;;
32106;SDS011;18622;51.998;10.440;2022-12-07T19:46:32;6.87;;;3.50;;
32106;SDS011;18622;51.998;10.440;2022-12-07T19:49:00;14.97;;;4.30;;
32106;SDS011;18622;51.998;10.440;2022-12-07T19:51:29;12.07;;;4.63;;
32106;SDS011;18622;51.998;10.440;2022-12-07T19:53:58;18.95;;;5.50;;
32106;SDS011;18622;51.998;10.440;2022-12-07T19:56:27;15.53;;;5.00;;
32106;SDS011;18622;51.998;10.440;2022-12-07T19:58:57;9.85;;;3.35;;
32106;SDS011;18622;51.998;10.440;2022-12-07T20:01:27;12.37;;;4.60;;
32106;SDS011;18622;51.998;10.440;2022-12-07T20:03:55;13.48;;;4.35;;
32106;SDS011;18622;51.998;10.440;2022-12-07T20:06:23;14.95;;;3.77;;
32106;SDS011;18622;51.998;10.440;2022-12-07T20:08:51;9.90;;;4.30;;
32106;SDS011;18622;51.998;10.440;2022-12-07T20:11:19;11.07;;;4.77;;
32106;SDS011;18622;51.998;10.440;2022-12-07T20:14:06;12.03;;;5.10;;
32106;SDS011;18622;51.998;10.440;2022-12-07T20:16:35;14.50;;;4.50;;
32106;SDS011;18622;51.998;10.440;2022-12-07T20:19:10;10.55;;;5.35;;
32106;SDS011;18622;51.998;10.440;2022-12-07T20:21:35;9.60;;;4.80;;
32106;SDS011;18622;51.998;10.440;2022-12-07T20:24:04;11.83;;;4.03;;
32106;SDS011;18622;51.998;10.440;2022-12-07T20:26:33;13.30;;;5.35;;
32106;SDS011;18622;51.998;10.440;2022-12-07T20:29:08;14.53;;;4.72;;
32106;SDS011;18622;51.998;10.440;2022-12-07T20:31:39;9.07;;;4.50;;
32106;SDS011;18622;51.998;10.440;2022-12-07T20:34:07;14.40;;;4.60;;
32106;SDS011;18622;51.998;10.440;2022-12-07T20:36:36;11.33;;;3.87;;
32106;SDS011;18622;51.998;10.440;2022-12-07T20:39:04;12.67;;;3.97;;
32106;SDS011;18622;51.998;10.440;2022-12-07T20:41:32;15.58;;;4.22;;
32106;SDS011;18622;51.998;10.440;2022-12-07T20:44:18;9.93;;;3.70;;
32106;SDS011;18622;51.998;10.440;2022-12-07T20:46:46;14.27;;;4.47;;
32106;SDS011;18622;51.998;10.440;2022-12-07T20:49:14;17.77;;;4.07;;
32106;SDS011;18622;51.998;10.440;2022-12-07T20:51:43;14.35;;;4.12;;
32106;SDS011;18622;51.998;10.440;2022-12-07T20:54:12;10.40;;;4.15;;
32106;SDS011;18622;51.998;10.440;2022-12-07T20:56:40;9.03;;;4.05;;
32106;SDS011;18622;51.998;10.440;2022-12-07T20:59:09;8.63;;;4.30;;
32106;SDS011;18622;51.998;10.440;2022-12-07T21:01:39;13.15;;;4.83;;
32106;SDS011;18622;51.998;10.440;2022-12-07T21:04:07;9.27;;;4.17;;
32106;SDS011;18622;51.998;10.440;2022-12-07T21:06:36;13.88;;;4.28;;
32106;SDS011;18622;51.998;10.440;2022-12-07T21:09:04;12.40;;;3.67;;
32106;SDS011;18622;51.998;10.440;2022-12-07T21:11:32;10.23;;;3.20;;
32106;SDS011;18622;51.998;10.440;2022-12-07T21:14:00;9.87;;;3.87;;
32106;SDS011;18622;51.998;10.440;2022-12-07T21:16:28;7.90;;;4.00;;
32106;SDS011;18622;51.998;10.440;2022-12-07T21:18:57;9.20;;;4.15;;
32106;SDS011;18622;51.998;10.440;2022-12-07T21:21:27;8.50;;;4.00;;
32106;SDS011;18622;51.998;10.440;2022-12-07T21:23:55;7.95;;;4.67;;
32106;SDS011;18622;51.998;10.440;2022-12-07T21:26:24;10.28;;;4.80;;
32106;SDS011;18622;51.998;10.440;2022-12-07T21:28:52;9.65;;;4.97;;
32106;SDS011;18622;51.998;10.440;2022-12-07T21:31:21;7.35;;;5.05;;
32106;SDS011;18622;51.998;10.440;2022-12-07T21:33:49;9.53;;;5.00;;
32106;SDS011;18622;51.998;10.440;2022-12-07T21:36:18;10.93;;;5.30;;
32106;SDS011;18622;51.998;10.440;2022-12-07T21:38:47;10.08;;;4.53;;
32106;SDS011;18622;51.998;10.440;2022-12-07T21:41:17;8.35;;;4.75;;
32106;SDS011;18622;51.998;10.440;2022-12-07T21:43:50;7.53;;;4.70;;
32106;SDS011;18622;51.998;10.440;2022-12-07T21:46:18;12.13;;;5.47;;
32106;SDS011;18622;51.998;10.440;2022-12-07T21:48:51;9.63;;;4.97;;
32106;SDS011;18622;51.998;10.440;2022-12-07T21:51:21;8.83;;;5.60;;
32106;SDS011;18622;51.998;10.440;2022-12-07T21:53:50;12.30;;;5.58;;
32106;SDS011;18622;51.998;10.440;2022-12-07T21:56:20;9.70;;;5.47;;
32106;SDS011;18622;51.998;10.440;2022-12-07T21:58:50;8.18;;;5.53;;
